sensor_id;sensor_type;location;lat;lon;timestamp;noise_LAeq;noise_LA_min;noise_LA_max;noise_LA01;noise_LA95
58780;Laerm;45243;51.548;6.990;2022-07-21T00:00:21;41.60;36.33;62.89;;
58780;Laerm;45243;51.548;6.990;2022-07-21T00:02:47;41.12;35.74;60.08;;
58780;Laerm;45243;51.548;6.990;2022-07-21T00:05:12;40.96;34.98;59.89;;
58780;Laerm;45243;51.548;6.990;2022-07-21T00:07:38;41.16;35.64;64.71;;
58780;Laerm;45243;51.548;6.990;2022-07-21T00:10:04;40.53;34.90;65.89;;
58780;Laerm;45243;51.548;6.990;2022-07-21T00:12:29;39.15;34.19;60.37;;
58780;Laerm;45243;51.548;6.990;2022-07-21T00:14:55;39.16;33.30;58.78;;
58780;Laerm;45243;51.548;6.990;2022-07-21T00:17:20;40.53;34.22;58.58;;
58780;Laerm;45243;51.548;6.990;2022-07-21T00:19:45;44.90;38.00;68.40;;
58780;Laerm;45243;51.548;6.990;2022-07-21T00:22:11;49.77;42.80;69.81;;
58780;Laerm;45243;51.548;6.990;2022-07-21T00:24:36;53.42;48.96;69.11;;
58780;Laerm;45243;51.548;6.990;2022-07-21T00:27:01;59.73;51.47;74.05;;
58780;Laerm;45243;51.548;6.990;2022-07-21T00:29:30;62.48;57.45;83.50;;
58780;Laerm;45243;51.548;6.990;2022-07-21T00:31:55;62.57;56.93;80.62;;
58780;Laerm;45243;51.548;6.990;2022-07-21T00:34:20;65.43;57.11;86.24;;
58780;Laerm;45243;51.548;6.990;2022-07-21T00:36:46;65.15;60.14;73.25;;
58780;Laerm;45243;51.548;6.990;2022-07-21T00:39:11;61.56;58.16;73.90;;
58780;Laerm;45243;51.548;6.990;2022-07-21T00:41:37;55.88;48.91;70.22;;
58780;Laerm;45243;51.548;6.990;2022-07-21T00:44:02;51.38;45.85;67.33;;
58780;Laerm;45243;51.548;6.990;2022-07-21T00:46:27;49.54;44.70;68.89;;
58780;Laerm;45243;51.548;6.990;2022-07-21T00:48:53;49.36;43.75;65.35;;
58780;Laerm;45243;51.548;6.990;2022-07-21T00:51:18;48.22;42.34;67.03;;
58780;Laerm;45243;51.548;6.990;2022-07-21T00:53:44;46.89;41.58;65.47;;
58780;Laerm;45243;51.548;6.990;2022-07-21T00:56:09;46.42;40.49;66.86;;
58780;Laerm;45243;51.548;6.990;2022-07-21T00:58:35;46.08;40.53;73.12;;
58780;Laerm;45243;51.548;6.990;2022-07-21T01:01:00;44.85;39.82;63.53;;
58780;Laerm;45243;51.548;6.990;2022-07-21T01:03:26;44.83;39.28;64.78;;
58780;Laerm;45243;51.548;6.990;2022-07-21T01:05:51;43.42;37.88;59.15;;
58780;Laerm;45243;51.548;6.990;2022-07-21T01:08:16;43.19;37.95;58.75;;
58780;Laerm;45243;51.548;6.990;2022-07-21T01:10:48;43.98;38.03;70.32;;
58780;Laerm;45243;51.548;6.990;2022-07-21T01:13:13;43.02;37.53;62.00;;
58780;Laerm;45243;51.548;6.990;2022-07-21T01:15:39;43.21;37.67;64.56;;
58780;Laerm;45243;51.548;6.990;2022-07-21T01:18:07;44.03;37.78;67.37;;
58780;Laerm;45243;51.548;6.990;2022-07-21T01:20:34;42.16;37.49;59.80;;
58780;Laerm;45243;51.548;6.990;2022-07-21T01:23:01;41.22;36.23;56.75;;
58780;Laerm;45243;51.548;6.990;2022-07-21T01:25:26;42.07;37.04;62.61;;
58780;Laerm;45243;51.548;6.990;2022-07-21T01:27:52;41.56;37.09;58.28;;
58780;Laerm;45243;51.548;6.990;2022-07-21T01:30:17;42.77;36.72;62.24;;
58780;Laerm;45243;51.548;6.990;2022-07-21T01:32:43;53.40;44.89;71.31;;
58780;Laerm;45243;51.548;6.990;2022-07-21T01:35:11;56.28;50.39;71.54;;
58780;Laerm;45243;51.548;6.990;2022-07-21T01:37:40;54.85;48.12;70.37;;
58780;Laerm;45243;51.548;6.990;2022-07-21T01:40:06;57.67;52.55;76.23;;
58780;Laerm;45243;51.548;6.990;2022-07-21T01:45:18;52.60;46.05;75.69;;
58780;Laerm;45243;51.548;6.990;2022-07-21T01:47:43;52.42;46.56;71.07;;
58780;Laerm;45243;51.548;6.990;2022-07-21T01:50:10;50.12;43.85;67.28;;
58780;Laerm;45243;51.548;6.990;2022-07-21T01:52:35;54.61;44.78;71.95;;
58780;Laerm;45243;51.548;6.990;2022-07-21T01:55:00;56.63;47.52;71.61;;
58780;Laerm;45243;51.548;6.990;2022-07-21T01:57:26;51.52;46.85;71.28;;
58780;Laerm;45243;51.548;6.990;2022-07-21T01:59:51;51.81;47.00;73.04;;
58780;Laerm;45243;51.548;6.990;2022-07-21T02:02:17;54.72;49.19;73.22;;
58780;Laerm;45243;51.548;6.990;2022-07-21T02:04:46;56.43;51.57;74.86;;
58780;Laerm;45243;51.548;6.990;2022-07-21T02:07:12;58.69;54.52;75.60;;
58780;Laerm;45243;51.548;6.990;2022-07-21T02:09:37;58.71;54.93;72.96;;
58780;Laerm;45243;51.548;6.990;2022-07-21T02:12:03;58.89;54.73;80.37;;
58780;Laerm;45243;51.548;6.990;2022-07-21T02:14:28;57.06;52.92;70.64;;
58780;Laerm;45243;51.548;6.990;2022-07-21T02:16:53;56.16;52.14;72.83;;
58780;Laerm;45243;51.548;6.990;2022-07-21T02:19:19;56.34;52.39;72.40;;
58780;Laerm;45243;51.548;6.990;2022-07-21T02:21:44;57.82;53.56;77.18;;
58780;Laerm;45243;51.548;6.990;2022-07-21T02:24:09;58.21;54.06;76.91;;
58780;Laerm;45243;51.548;6.990;2022-07-21T02:26:35;59.28;55.41;73.75;;
58780;Laerm;45243;51.548;6.990;2022-07-21T02:29:00;59.26;55.16;72.63;;
58780;Laerm;45243;51.548;6.990;2022-07-21T02:31:25;60.07;56.92;75.00;;
58780;Laerm;45243;51.548;6.990;2022-07-21T02:33:51;59.11;55.19;73.52;;
58780;Laerm;45243;51.548;6.990;2022-07-21T02:36:16;58.97;55.05;76.30;;
58780;Laerm;45243;51.548;6.990;2022-07-21T02:38:41;58.16;54.38;73.35;;
58780;Laerm;45243;51.548;6.990;2022-07-21T02:41:08;58.01;53.75;78.40;;
58780;Laerm;45243;51.548;6.990;2022-07-21T02:43:33;59.27;55.19;74.37;;
58780;Laerm;45243;51.548;6.990;2022-07-21T02:45:58;59.44;53.96;74.11;;
58780;Laerm;45243;51.548;6.990;2022-07-21T02:48:24;58.76;54.82;73.76;;
58780;Laerm;45243;51.548;6.990;2022-07-21T02:50:49;58.44;54.63;74.55;;
58780;Laerm;45243;51.548;6.990;2022-07-21T02:53:16;57.29;53.62;73.30;;
58780;Laerm;45243;51.548;6.990;2022-07-21T02:55:45;56.10;52.13;74.44;;
58780;Laerm;45243;51.548;6.990;2022-07-21T02:58:14;56.01;51.68;75.31;;
58780;Laerm;45243;51.548;6.990;2022-07-21T03:00:53;56.13;51.67;75.00;;
58780;Laerm;45243;51.548;6.990;2022-07-21T03:05:46;55.62;51.44;71.43;;
58780;Laerm;45243;51.548;6.990;2022-07-21T03:08:12;55.05;50.33;73.59;;
58780;Laerm;45243;51.548;6.990;2022-07-21T03:10:38;54.18;49.27;71.78;;
58780;Laerm;45243;51.548;6.990;2022-07-21T03:13:05;54.26;49.87;70.60;;
58780;Laerm;45243;51.548;6.990;2022-07-21T03:15:31;55.12;50.08;70.72;;
58780;Laerm;45243;51.548;6.990;2022-07-21T03:17:57;56.98;52.37;69.10;;
58780;Laerm;45243;51.548;6.990;2022-07-21T03:20:27;58.77;54.87;76.70;;
58780;Laerm;45243;51.548;6.990;2022-07-21T03:22:52;57.54;52.95;73.42;;
58780;Laerm;45243;51.548;6.990;2022-07-21T03:25:18;58.61;53.55;75.11;;
58780;Laerm;45243;51.548;6.990;2022-07-21T03:27:45;58.53;53.63;71.98;;
58780;Laerm;45243;51.548;6.990;2022-07-21T03:30:11;57.50;53.05;71.73;;
58780;Laerm;45243;51.548;6.990;2022-07-21T03:32:36;57.14;52.12;73.78;;
58780;Laerm;45243;51.548;6.990;2022-07-21T03:35:04;58.48;54.67;72.55;;
58780;Laerm;45243;51.548;6.990;2022-07-21T03:42:25;55.34;49.62;77.37;;
58780;Laerm;45243;51.548;6.990;2022-07-21T03:44:50;53.17;48.14;73.48;;
58780;Laerm;45243;51.548;6.990;2022-07-21T03:47:15;52.05;46.23;67.34;;
58780;Laerm;45243;51.548;6.990;2022-07-21T03:49:41;49.67;44.84;68.03;;
58780;Laerm;45243;51.548;6.990;2022-07-21T03:52:06;49.15;44.04;70.41;;
58780;Laerm;45243;51.548;6.990;2022-07-21T03:54:31;48.43;43.84;67.38;;
58780;Laerm;45243;51.548;6.990;2022-07-21T03:56:57;48.05;42.39;64.71;;
58780;Laerm;45243;51.548;6.990;2022-07-21T03:59:22;47.14;41.62;65.73;;
58780;Laerm;45243;51.548;6.990;2022-07-21T04:01:48;46.34;41.83;63.36;;
58780;Laerm;45243;51.548;6.990;2022-07-21T04:04:13;46.58;40.72;69.36;;
58780;Laerm;45243;51.548;6.990;2022-07-21T04:06:38;50.51;41.73;69.84;;
58780;Laerm;45243;51.548;6.990;2022-07-21T04:09:03;45.55;40.91;64.46;;
58780;Laerm;45243;51.548;6.990;2022-07-21T04:11:29;45.76;40.88;60.20;;
58780;Laerm;45243;51.548;6.990;2022-07-21T04:16:30;46.65;41.62;64.84;;
58780;Laerm;45243;51.548;6.990;2022-07-21T04:18:56;50.16;42.50;75.76;;
58780;Laerm;45243;51.548;6.990;2022-07-21T04:21:21;46.71;40.16;73.82;;
58780;Laerm;45243;51.548;6.990;2022-07-21T04:23:46;45.37;40.00;67.04;;
58780;Laerm;45243;51.548;6.990;2022-07-21T04:26:11;45.60;39.69;61.20;;
58780;Laerm;45243;51.548;6.990;2022-07-21T04:28:37;44.24;39.01;67.05;;
58780;Laerm;45243;51.548;6.990;2022-07-21T04:31:02;44.11;38.97;57.88;;
58780;Laerm;45243;51.548;6.990;2022-07-21T04:33:28;45.56;39.80;67.23;;
58780;Laerm;45243;51.548;6.990;2022-07-21T04:35:53;48.97;40.21;67.44;;
58780;Laerm;45243;51.548;6.990;2022-07-21T04:38:18;45.89;39.78;67.23;;
58780;Laerm;45243;51.548;6.990;2022-07-21T04:40:43;47.07;41.74;65.51;;
58780;Laerm;45243;51.548;6.990;2022-07-21T04:43:09;46.36;41.01;64.40;;
58780;Laerm;45243;51.548;6.990;2022-07-21T04:45:34;46.94;40.79;66.30;;
58780;Laerm;45243;51.548;6.990;2022-07-21T04:48:00;48.44;41.74;74.32;;
58780;Laerm;45243;51.548;6.990;2022-07-21T04:50:26;46.51;40.15;66.05;;
58780;Laerm;45243;51.548;6.990;2022-07-21T04:52:53;46.52;40.97;67.06;;
58780;Laerm;45243;51.548;6.990;2022-07-21T04:55:19;50.95;40.27;72.90;;
58780;Laerm;45243;51.548;6.990;2022-07-21T04:57:47;46.26;40.93;67.52;;
58780;Laerm;45243;51.548;6.990;2022-07-21T05:00:15;45.15;39.56;61.92;;
58780;Laerm;45243;51.548;6.990;2022-07-21T05:02:41;44.85;39.68;67.54;;
58780;Laerm;45243;51.548;6.990;2022-07-21T05:05:07;46.53;39.49;63.51;;
58780;Laerm;45243;51.548;6.990;2022-07-21T05:07:33;45.91;39.88;61.04;;
58780;Laerm;45243;51.548;6.990;2022-07-21T05:09:59;50.37;40.57;69.85;;
58780;Laerm;45243;51.548;6.990;2022-07-21T05:12:25;45.77;40.31;54.15;;
58780;Laerm;45243;51.548;6.990;2022-07-21T05:14:50;46.18;39.93;60.07;;
58780;Laerm;45243;51.548;6.990;2022-07-21T05:17:16;45.08;40.36;57.40;;
58780;Laerm;45243;51.548;6.990;2022-07-21T05:19:41;46.78;39.82;66.17;;
58780;Laerm;45243;51.548;6.990;2022-07-21T05:22:08;45.34;40.39;58.21;;
58780;Laerm;45243;51.548;6.990;2022-07-21T05:24:33;44.59;39.80;56.17;;
58780;Laerm;45243;51.548;6.990;2022-07-21T05:26:59;48.62;42.16;71.69;;
58780;Laerm;45243;51.548;6.990;2022-07-21T05:29:24;45.39;40.56;66.20;;
58780;Laerm;45243;51.548;6.990;2022-07-21T05:31:49;46.00;39.43;58.61;;
58780;Laerm;45243;51.548;6.990;2022-07-21T05:34:15;45.66;41.05;56.66;;
58780;Laerm;45243;51.548;6.990;2022-07-21T05:36:40;44.50;39.58;53.95;;
58780;Laerm;45243;51.548;6.990;2022-07-21T05:39:05;46.17;40.53;57.96;;
58780;Laerm;45243;51.548;6.990;2022-07-21T05:41:31;46.11;40.89;53.97;;
58780;Laerm;45243;51.548;6.990;2022-07-21T05:43:56;44.40;40.29;59.18;;
58780;Laerm;45243;51.548;6.990;2022-07-21T05:46:21;47.40;40.99;70.25;;
58780;Laerm;45243;51.548;6.990;2022-07-21T05:48:46;45.16;40.00;54.99;;
58780;Laerm;45243;51.548;6.990;2022-07-21T05:51:12;42.65;37.81;58.94;;
58780;Laerm;45243;51.548;6.990;2022-07-21T05:53:37;44.65;39.52;60.83;;
58780;Laerm;45243;51.548;6.990;2022-07-21T05:56:03;45.63;40.12;58.26;;
58780;Laerm;45243;51.548;6.990;2022-07-21T05:58:28;45.84;40.62;56.37;;
58780;Laerm;45243;51.548;6.990;2022-07-21T06:00:54;45.48;39.78;53.13;;
58780;Laerm;45243;51.548;6.990;2022-07-21T06:03:35;45.85;38.62;62.62;;
58780;Laerm;45243;51.548;6.990;2022-07-21T06:06:01;48.23;40.37;72.60;;
58780;Laerm;45243;51.548;6.990;2022-07-21T06:08:27;46.85;39.64;69.05;;
58780;Laerm;45243;51.548;6.990;2022-07-21T06:10:52;45.91;40.91;57.20;;
58780;Laerm;45243;51.548;6.990;2022-07-21T06:13:17;46.58;40.64;52.09;;
58780;Laerm;45243;51.548;6.990;2022-07-21T06:15:43;45.47;40.04;52.97;;
58780;Laerm;45243;51.548;6.990;2022-07-21T06:18:08;47.25;42.59;67.93;;
58780;Laerm;45243;51.548;6.990;2022-07-21T06:20:33;46.81;42.34;64.52;;
58780;Laerm;45243;51.548;6.990;2022-07-21T06:22:58;46.94;39.64;77.54;;
58780;Laerm;45243;51.548;6.990;2022-07-21T06:25:24;50.70;41.10;68.33;;
58780;Laerm;45243;51.548;6.990;2022-07-21T06:27:49;46.16;41.30;59.03;;
58780;Laerm;45243;51.548;6.990;2022-07-21T06:30:14;47.42;41.82;61.09;;
58780;Laerm;45243;51.548;6.990;2022-07-21T06:32:39;47.87;42.62;60.86;;
58780;Laerm;45243;51.548;6.990;2022-07-21T06:35:06;46.84;40.90;69.82;;
58780;Laerm;45243;51.548;6.990;2022-07-21T06:37:32;46.79;40.24;54.83;;
58780;Laerm;45243;51.548;6.990;2022-07-21T06:39:57;46.61;41.94;53.88;;
58780;Laerm;45243;51.548;6.990;2022-07-21T06:42:23;46.35;41.59;58.59;;
58780;Laerm;45243;51.548;6.990;2022-07-21T06:44:48;45.41;38.24;58.39;;
58780;Laerm;45243;51.548;6.990;2022-07-21T06:47:13;45.45;38.17;54.91;;
58780;Laerm;45243;51.548;6.990;2022-07-21T06:49:39;44.17;38.87;51.21;;
58780;Laerm;45243;51.548;6.990;2022-07-21T06:52:04;45.63;40.31;55.05;;
58780;Laerm;45243;51.548;6.990;2022-07-21T06:54:30;47.57;40.46;65.15;;
58780;Laerm;45243;51.548;6.990;2022-07-21T06:56:55;46.86;41.16;70.55;;
58780;Laerm;45243;51.548;6.990;2022-07-21T06:59:20;47.80;42.26;60.44;;
58780;Laerm;45243;51.548;6.990;2022-07-21T07:01:45;49.57;41.73;62.44;;
58780;Laerm;45243;51.548;6.990;2022-07-21T07:04:11;45.25;40.04;51.28;;
58780;Laerm;45243;51.548;6.990;2022-07-21T07:06:36;47.07;41.95;55.55;;
58780;Laerm;45243;51.548;6.990;2022-07-21T07:09:02;49.01;42.17;61.73;;
58780;Laerm;45243;51.548;6.990;2022-07-21T07:11:27;49.66;41.33;69.41;;
58780;Laerm;45243;51.548;6.990;2022-07-21T07:20:46;46.54;40.73;53.52;;
58780;Laerm;45243;51.548;6.990;2022-07-21T07:23:11;46.53;40.91;52.95;;
58780;Laerm;45243;51.548;6.990;2022-07-21T07:25:36;53.75;40.96;68.47;;
58780;Laerm;45243;51.548;6.990;2022-07-21T07:28:03;48.46;40.84;71.26;;
58780;Laerm;45243;51.548;6.990;2022-07-21T07:30:29;46.11;41.09;69.52;;
58780;Laerm;45243;51.548;6.990;2022-07-21T07:32:55;45.41;38.90;53.13;;
58780;Laerm;45243;51.548;6.990;2022-07-21T07:35:20;46.79;41.92;52.65;;
58780;Laerm;45243;51.548;6.990;2022-07-21T07:37:46;47.27;42.00;56.50;;
58780;Laerm;45243;51.548;6.990;2022-07-21T07:40:16;46.76;41.51;54.47;;
58780;Laerm;45243;51.548;6.990;2022-07-21T07:42:42;45.08;39.61;51.43;;
58780;Laerm;45243;51.548;6.990;2022-07-21T07:45:08;43.87;38.57;48.96;;
58780;Laerm;45243;51.548;6.990;2022-07-21T07:47:34;46.10;39.02;62.85;;
58780;Laerm;45243;51.548;6.990;2022-07-21T07:50:00;49.05;42.33;61.51;;
58780;Laerm;45243;51.548;6.990;2022-07-21T07:52:25;49.30;41.34;61.53;;
58780;Laerm;45243;51.548;6.990;2022-07-21T07:54:51;46.30;40.38;53.93;;
58780;Laerm;45243;51.548;6.990;2022-07-21T07:57:16;46.09;41.24;50.26;;
58780;Laerm;45243;51.548;6.990;2022-07-21T07:59:42;44.81;40.23;50.12;;
58780;Laerm;45243;51.548;6.990;2022-07-21T08:02:08;44.87;39.02;52.56;;
58780;Laerm;45243;51.548;6.990;2022-07-21T08:04:33;44.84;40.32;50.42;;
58780;Laerm;45243;51.548;6.990;2022-07-21T08:07:00;46.04;41.75;53.25;;
58780;Laerm;45243;51.548;6.990;2022-07-21T08:11:54;46.23;40.97;65.79;;
58780;Laerm;45243;51.548;6.990;2022-07-21T08:14:19;47.64;42.62;52.62;;
58780;Laerm;45243;51.548;6.990;2022-07-21T08:16:44;46.44;40.34;51.26;;
58780;Laerm;45243;51.548;6.990;2022-07-21T08:19:11;44.80;40.11;51.12;;
58780;Laerm;45243;51.548;6.990;2022-07-21T08:21:37;46.90;40.78;52.11;;
58780;Laerm;45243;51.548;6.990;2022-07-21T08:24:02;45.78;41.15;49.61;;
58780;Laerm;45243;51.548;6.990;2022-07-21T08:26:28;44.57;39.81;48.94;;
58780;Laerm;45243;51.548;6.990;2022-07-21T08:28:55;45.90;39.57;51.03;;
58780;Laerm;45243;51.548;6.990;2022-07-21T08:31:21;45.98;41.18;52.16;;
58780;Laerm;45243;51.548;6.990;2022-07-21T08:33:48;46.55;39.48;52.76;;
58780;Laerm;45243;51.548;6.990;2022-07-21T08:36:13;46.68;41.02;53.00;;
58780;Laerm;45243;51.548;6.990;2022-07-21T08:38:39;46.05;39.21;64.48;;
58780;Laerm;45243;51.548;6.990;2022-07-21T08:41:04;47.60;41.48;54.43;;
58780;Laerm;45243;51.548;6.990;2022-07-21T08:43:30;45.43;39.90;58.27;;
58780;Laerm;45243;51.548;6.990;2022-07-21T08:45:56;45.75;38.45;67.45;;
58780;Laerm;45243;51.548;6.990;2022-07-21T08:48:24;47.64;39.45;57.80;;
58780;Laerm;45243;51.548;6.990;2022-07-21T08:50:50;47.13;42.41;56.50;;
58780;Laerm;45243;51.548;6.990;2022-07-21T08:53:16;46.93;43.09;64.36;;
58780;Laerm;45243;51.548;6.990;2022-07-21T08:55:41;46.44;41.74;65.84;;
58780;Laerm;45243;51.548;6.990;2022-07-21T08:58:10;44.49;39.19;64.19;;
58780;Laerm;45243;51.548;6.990;2022-07-21T09:00:45;45.20;39.30;51.61;;
58780;Laerm;45243;51.548;6.990;2022-07-21T09:03:12;45.41;40.81;55.14;;
58780;Laerm;45243;51.548;6.990;2022-07-21T09:05:38;48.78;40.15;59.93;;
58780;Laerm;45243;51.548;6.990;2022-07-21T09:08:04;46.62;41.69;53.07;;
58780;Laerm;45243;51.548;6.990;2022-07-21T09:10:32;45.09;40.93;54.07;;
58780;Laerm;45243;51.548;6.990;2022-07-21T09:13:04;47.07;40.66;56.71;;
58780;Laerm;45243;51.548;6.990;2022-07-21T09:15:31;47.53;42.20;52.62;;
58780;Laerm;45243;51.548;6.990;2022-07-21T09:18:06;47.66;41.35;52.91;;
58780;Laerm;45243;51.548;6.990;2022-07-21T09:20:33;47.54;42.56;52.90;;
58780;Laerm;45243;51.548;6.990;2022-07-21T09:23:06;49.32;41.78;58.47;;
58780;Laerm;45243;51.548;6.990;2022-07-21T09:25:36;46.63;41.68;56.07;;
58780;Laerm;45243;51.548;6.990;2022-07-21T09:28:23;47.65;44.47;52.49;;
58780;Laerm;45243;51.548;6.990;2022-07-21T09:30:49;47.29;42.23;56.46;;
58780;Laerm;45243;51.548;6.990;2022-07-21T09:33:27;45.39;39.80;49.75;;
58780;Laerm;45243;51.548;6.990;2022-07-21T09:35:54;46.74;41.10;53.21;;
58780;Laerm;45243;51.548;6.990;2022-07-21T09:38:19;45.51;40.02;54.18;;
58780;Laerm;45243;51.548;6.990;2022-07-21T09:40:48;44.93;39.46;51.67;;
58780;Laerm;45243;51.548;6.990;2022-07-21T09:43:30;50.07;38.52;64.63;;
58780;Laerm;45243;51.548;6.990;2022-07-21T09:45:55;47.44;42.56;63.20;;
58780;Laerm;45243;51.548;6.990;2022-07-21T09:48:42;45.87;41.01;61.15;;
58780;Laerm;45243;51.548;6.990;2022-07-21T09:51:30;46.69;39.60;52.69;;
58780;Laerm;45243;51.548;6.990;2022-07-21T09:54:01;46.54;40.64;55.61;;
58780;Laerm;45243;51.548;6.990;2022-07-21T09:56:30;50.53;45.46;56.81;;
58780;Laerm;45243;51.548;6.990;2022-07-21T09:58:56;50.45;41.88;64.70;;
58780;Laerm;45243;51.548;6.990;2022-07-21T10:01:23;49.37;41.65;61.79;;
58780;Laerm;45243;51.548;6.990;2022-07-21T10:03:50;47.47;42.40;52.56;;
58780;Laerm;45243;51.548;6.990;2022-07-21T10:06:17;47.95;41.11;57.89;;
58780;Laerm;45243;51.548;6.990;2022-07-21T10:08:44;54.44;40.38;83.75;;
58780;Laerm;45243;51.548;6.990;2022-07-21T10:11:10;46.24;40.41;52.88;;
58780;Laerm;45243;51.548;6.990;2022-07-21T10:13:37;48.16;39.67;71.18;;
58780;Laerm;45243;51.548;6.990;2022-07-21T10:16:03;49.36;43.90;54.67;;
58780;Laerm;45243;51.548;6.990;2022-07-21T10:18:34;47.89;41.59;53.58;;
58780;Laerm;45243;51.548;6.990;2022-07-21T10:23:57;47.46;42.58;53.61;;
58780;Laerm;45243;51.548;6.990;2022-07-21T10:28:50;48.02;43.98;53.47;;
58780;Laerm;45243;51.548;6.990;2022-07-21T10:31:21;49.02;43.97;59.76;;
58780;Laerm;45243;51.548;6.990;2022-07-21T10:34:15;49.26;41.65;55.13;;
58780;Laerm;45243;51.548;6.990;2022-07-21T10:39:41;52.47;46.90;58.43;;
58780;Laerm;45243;51.548;6.990;2022-07-21T10:42:15;50.52;44.54;56.18;;
58780;Laerm;45243;51.548;6.990;2022-07-21T10:44:42;49.47;44.43;53.60;;
58780;Laerm;45243;51.548;6.990;2022-07-21T10:47:12;49.82;45.01;56.99;;
58780;Laerm;45243;51.548;6.990;2022-07-21T10:49:47;52.09;48.55;58.31;;
58780;Laerm;45243;51.548;6.990;2022-07-21T10:55:16;50.35;45.93;56.95;;
58780;Laerm;45243;51.548;6.990;2022-07-21T11:00:27;49.79;43.84;54.35;;
58780;Laerm;45243;51.548;6.990;2022-07-21T11:03:01;48.25;43.42;54.05;;
58780;Laerm;45243;51.548;6.990;2022-07-21T11:05:29;48.79;44.47;56.34;;
58780;Laerm;45243;51.548;6.990;2022-07-21T11:08:12;48.15;43.25;53.97;;
58780;Laerm;45243;51.548;6.990;2022-07-21T11:10:49;48.36;43.52;52.80;;
58780;Laerm;45243;51.548;6.990;2022-07-21T11:13:15;48.88;43.19;59.40;;
58780;Laerm;45243;51.548;6.990;2022-07-21T11:20:35;51.26;46.13;58.80;;
58780;Laerm;45243;51.548;6.990;2022-07-21T11:23:00;53.99;49.79;67.81;;
58780;Laerm;45243;51.548;6.990;2022-07-21T11:25:29;53.89;48.94;66.76;;
58780;Laerm;45243;51.548;6.990;2022-07-21T11:27:54;58.49;48.96;92.69;;
58780;Laerm;45243;51.548;6.990;2022-07-21T11:30:23;54.61;49.32;78.04;;
58780;Laerm;45243;51.548;6.990;2022-07-21T11:32:48;55.67;51.88;78.64;;
58780;Laerm;45243;51.548;6.990;2022-07-21T11:35:14;53.62;50.25;67.87;;
58780;Laerm;45243;51.548;6.990;2022-07-21T11:37:44;54.42;49.59;76.28;;
58780;Laerm;45243;51.548;6.990;2022-07-21T11:40:10;54.96;50.56;73.75;;
58780;Laerm;45243;51.548;6.990;2022-07-21T11:42:39;54.47;48.75;71.79;;
58780;Laerm;45243;51.548;6.990;2022-07-21T11:45:06;54.40;48.97;80.18;;
58780;Laerm;45243;51.548;6.990;2022-07-21T11:52:29;55.06;49.35;72.74;;
58780;Laerm;45243;51.548;6.990;2022-07-21T11:54:56;55.49;49.03;74.68;;
58780;Laerm;45243;51.548;6.990;2022-07-21T11:57:24;54.25;49.99;70.19;;
58780;Laerm;45243;51.548;6.990;2022-07-21T11:59:52;55.39;50.43;75.52;;
58780;Laerm;45243;51.548;6.990;2022-07-21T12:02:23;55.20;50.50;70.88;;
58780;Laerm;45243;51.548;6.990;2022-07-21T12:07:39;56.51;49.64;83.59;;
58780;Laerm;45243;51.548;6.990;2022-07-21T12:10:22;56.39;49.85;84.07;;
58780;Laerm;45243;51.548;6.990;2022-07-21T12:12:48;57.05;52.48;72.62;;
58780;Laerm;45243;51.548;6.990;2022-07-21T12:15:21;58.95;52.21;73.46;;
58780;Laerm;45243;51.548;6.990;2022-07-21T12:17:53;56.47;49.78;77.45;;
58780;Laerm;45243;51.548;6.990;2022-07-21T12:20:33;55.66;49.29;77.01;;
58780;Laerm;45243;51.548;6.990;2022-07-21T12:25:44;53.07;48.43;69.28;;
58780;Laerm;45243;51.548;6.990;2022-07-21T12:28:09;53.83;46.56;79.37;;
58780;Laerm;45243;51.548;6.990;2022-07-21T12:30:39;52.20;46.09;71.44;;
58780;Laerm;45243;51.548;6.990;2022-07-21T12:33:05;50.54;45.35;66.77;;
58780;Laerm;45243;51.548;6.990;2022-07-21T12:35:36;49.94;45.67;67.75;;
58780;Laerm;45243;51.548;6.990;2022-07-21T12:38:11;50.73;45.21;67.34;;
58780;Laerm;45243;51.548;6.990;2022-07-21T12:40:40;53.91;47.60;71.15;;
58780;Laerm;45243;51.548;6.990;2022-07-21T12:43:15;52.65;47.93;69.66;;
58780;Laerm;45243;51.548;6.990;2022-07-21T12:45:56;54.04;48.97;76.12;;
58780;Laerm;45243;51.548;6.990;2022-07-21T12:48:27;54.46;47.46;80.30;;
58780;Laerm;45243;51.548;6.990;2022-07-21T12:51:05;53.17;48.39;77.06;;
58780;Laerm;45243;51.548;6.990;2022-07-21T12:53:37;53.64;47.97;73.58;;
58780;Laerm;45243;51.548;6.990;2022-07-21T12:58:30;54.06;48.41;71.13;;
58780;Laerm;45243;51.548;6.990;2022-07-21T13:00:55;51.53;47.36;74.23;;
58780;Laerm;45243;51.548;6.990;2022-07-21T13:03:21;51.46;46.82;73.44;;
58780;Laerm;45243;51.548;6.990;2022-07-21T13:05:46;50.97;46.38;73.68;;
58780;Laerm;45243;51.548;6.990;2022-07-21T13:08:12;55.71;46.84;75.59;;
58780;Laerm;45243;51.548;6.990;2022-07-21T13:10:37;57.20;50.89;76.08;;
58780;Laerm;45243;51.548;6.990;2022-07-21T13:13:02;61.27;55.98;73.28;;
58780;Laerm;45243;51.548;6.990;2022-07-21T13:15:28;62.39;54.19;84.51;;
58780;Laerm;45243;51.548;6.990;2022-07-21T13:17:53;59.80;53.13;76.81;;
58780;Laerm;45243;51.548;6.990;2022-07-21T13:20:19;60.04;53.24;74.41;;
58780;Laerm;45243;51.548;6.990;2022-07-21T13:22:44;55.70;50.31;75.97;;
58780;Laerm;45243;51.548;6.990;2022-07-21T13:25:10;53.36;47.99;70.20;;
58780;Laerm;45243;51.548;6.990;2022-07-21T13:27:36;52.09;47.77;75.04;;
58780;Laerm;45243;51.548;6.990;2022-07-21T13:30:04;51.39;47.91;65.38;;
58780;Laerm;45243;51.548;6.990;2022-07-21T13:32:30;51.44;47.26;69.87;;
58780;Laerm;45243;51.548;6.990;2022-07-21T13:34:55;51.36;47.39;71.20;;
58780;Laerm;45243;51.548;6.990;2022-07-21T13:37:20;52.23;47.76;73.30;;
58780;Laerm;45243;51.548;6.990;2022-07-21T13:39:46;50.58;45.73;70.32;;
58780;Laerm;45243;51.548;6.990;2022-07-21T13:42:11;51.40;45.86;72.51;;
58780;Laerm;45243;51.548;6.990;2022-07-21T13:44:36;50.32;45.63;73.29;;
58780;Laerm;45243;51.548;6.990;2022-07-21T13:47:02;51.91;46.19;71.05;;
58780;Laerm;45243;51.548;6.990;2022-07-21T13:51:55;49.76;44.49;70.85;;
58780;Laerm;45243;51.548;6.990;2022-07-21T13:54:21;50.22;45.51;65.31;;
58780;Laerm;45243;51.548;6.990;2022-07-21T13:56:46;50.93;45.26;70.01;;
58780;Laerm;45243;51.548;6.990;2022-07-21T13:59:12;49.66;45.14;68.00;;
58780;Laerm;45243;51.548;6.990;2022-07-21T14:01:37;50.02;45.32;73.67;;
58780;Laerm;45243;51.548;6.990;2022-07-21T14:04:03;52.42;43.96;84.89;;
58780;Laerm;45243;51.548;6.990;2022-07-21T14:06:28;49.11;44.74;64.97;;
58780;Laerm;45243;51.548;6.990;2022-07-21T14:08:54;48.21;44.43;69.43;;
58780;Laerm;45243;51.548;6.990;2022-07-21T14:11:20;49.44;45.17;63.16;;
58780;Laerm;45243;51.548;6.990;2022-07-21T14:13:48;48.65;43.74;64.91;;
58780;Laerm;45243;51.548;6.990;2022-07-21T14:16:13;54.84;45.09;86.90;;
58780;Laerm;45243;51.548;6.990;2022-07-21T14:18:39;51.23;45.75;69.80;;
58780;Laerm;45243;51.548;6.990;2022-07-21T14:23:32;49.41;45.54;65.08;;
58780;Laerm;45243;51.548;6.990;2022-07-21T14:28:25;50.50;45.21;61.45;;
58780;Laerm;45243;51.548;6.990;2022-07-21T14:30:51;49.27;44.59;57.12;;
58780;Laerm;45243;51.548;6.990;2022-07-21T14:33:16;48.20;44.64;54.67;;
58780;Laerm;45243;51.548;6.990;2022-07-21T14:35:42;47.71;43.63;56.94;;
58780;Laerm;45243;51.548;6.990;2022-07-21T14:38:07;46.42;42.46;57.56;;
58780;Laerm;45243;51.548;6.990;2022-07-21T14:40:33;46.08;41.23;51.99;;
58780;Laerm;45243;51.548;6.990;2022-07-21T14:42:59;48.48;44.11;66.20;;